sensor_id;sensor_type;location;lat;lon;timestamp;P1;durP1;ratioP1;P2;durP2;ratioP2
68910;SDS011;55953;51.650;-0.522;2024-02-04T00:01:11;2.30;;;1.70;;
68910;SDS011;55953;51.650;-0.522;2024-02-04T00:03:57;2.30;;;1.50;;
68910;SDS011;55953;51.650;-0.522;2024-02-04T00:06:25;3.10;;;1.70;;
68910;SDS011;55953;51.650;-0.522;2024-02-04T00:08:54;3.10;;;1.50;;
68910;SDS011;55953;51.650;-0.522;2024-02-04T00:11:22;4.00;;;1.50;;
68910;SDS011;55953;51.650;-0.522;2024-02-04T00:13:50;2.40;;;1.20;;
68910;SDS011;55953;51.650;-0.522;2024-02-04T00:16:18;2.00;;;1.30;;
68910;SDS011;55953;51.650;-0.522;2024-02-04T00:18:45;2.50;;;1.30;;
68910;SDS011;55953;51.650;-0.522;2024-02-04T00:21:14;2.60;;;1.30;;
68910;SDS011;55953;51.650;-0.522;2024-02-04T00:23:41;3.10;;;1.50;;
68910;SDS011;55953;51.650;-0.522;2024-02-04T00:26:09;2.80;;;1.60;;
68910;SDS011;55953;51.650;-0.522;2024-02-04T00:28:37;2.00;;;1.30;;
68910;SDS011;55953;51.650;-0.522;2024-02-04T00:31:07;2.50;;;1.40;;
68910;SDS011;55953;51.650;-0.522;2024-02-04T00:33:35;3.60;;;1.50;;
68910;SDS011;55953;51.650;-0.522;2024-02-04T00:36:04;1.80;;;1.20;;
68910;SDS011;55953;51.650;-0.522;2024-02-04T00:38:32;2.20;;;1.20;;
68910;SDS011;55953;51.650;-0.522;2024-02-04T00:41:00;2.10;;;1.40;;
68910;SDS011;55953;51.650;-0.522;2024-02-04T00:43:28;2.00;;;1.30;;
68910;SDS011;55953;51.650;-0.522;2024-02-04T00:45:55;3.40;;;1.50;;
68910;SDS011;55953;51.650;-0.522;2024-02-04T00:48:24;5.00;;;2.10;;
68910;SDS011;55953;51.650;-0.522;2024-02-04T00:50:52;2.00;;;1.30;;
68910;SDS011;55953;51.650;-0.522;2024-02-04T00:53:20;3.20;;;1.30;;
68910;SDS011;55953;51.650;-0.522;2024-02-04T00:55:48;3.00;;;1.30;;
68910;SDS011;55953;51.650;-0.522;2024-02-04T00:58:16;2.60;;;1.20;;
68910;SDS011;55953;51.650;-0.522;2024-02-04T01:00:44;1.80;;;1.30;;
68910;SDS011;55953;51.650;-0.522;2024-02-04T01:03:13;4.00;;;1.50;;
68910;SDS011;55953;51.650;-0.522;2024-02-04T01:05:41;1.50;;;1.10;;
68910;SDS011;55953;51.650;-0.522;2024-02-04T01:08:09;2.20;;;0.90;;
68910;SDS011;55953;51.650;-0.522;2024-02-04T01:10:36;2.00;;;1.20;;
68910;SDS011;55953;51.650;-0.522;2024-02-04T01:13:04;2.50;;;1.00;;
68910;SDS011;55953;51.650;-0.522;2024-02-04T01:15:32;2.00;;;1.20;;
68910;SDS011;55953;51.650;-0.522;2024-02-04T01:18:00;2.60;;;1.20;;
68910;SDS011;55953;51.650;-0.522;2024-02-04T01:20:29;2.10;;;1.10;;
68910;SDS011;55953;51.650;-0.522;2024-02-04T01:22:56;1.40;;;0.90;;
68910;SDS011;55953;51.650;-0.522;2024-02-04T01:25:24;1.80;;;1.00;;
68910;SDS011;55953;51.650;-0.522;2024-02-04T01:27:52;1.20;;;0.90;;
68910;SDS011;55953;51.650;-0.522;2024-02-04T01:30:22;1.20;;;0.90;;
68910;SDS011;55953;51.650;-0.522;2024-02-04T01:32:50;2.40;;;1.00;;
68910;SDS011;55953;51.650;-0.522;2024-02-04T01:35:18;1.40;;;0.90;;
68910;SDS011;55953;51.650;-0.522;2024-02-04T01:37:46;2.10;;;0.90;;
68910;SDS011;55953;51.650;-0.522;2024-02-04T01:40:16;1.50;;;1.10;;
68910;SDS011;55953;51.650;-0.522;2024-02-04T01:42:44;1.40;;;1.00;;
68910;SDS011;55953;51.650;-0.522;2024-02-04T01:45:12;1.70;;;1.10;;
68910;SDS011;55953;51.650;-0.522;2024-02-04T01:47:40;1.80;;;1.10;;
68910;SDS011;55953;51.650;-0.522;2024-02-04T01:50:08;2.90;;;1.10;;
68910;SDS011;55953;51.650;-0.522;2024-02-04T01:52:39;2.30;;;1.20;;
68910;SDS011;55953;51.650;-0.522;2024-02-04T01:55:08;1.60;;;1.10;;
68910;SDS011;55953;51.650;-0.522;2024-02-04T01:57:37;1.80;;;1.00;;
68910;SDS011;55953;51.650;-0.522;2024-02-04T02:00:06;1.40;;;1.00;;
68910;SDS011;55953;51.650;-0.522;2024-02-04T02:02:41;1.80;;;1.10;;
68910;SDS011;55953;51.650;-0.522;2024-02-04T02:05:09;1.40;;;1.00;;
68910;SDS011;55953;51.650;-0.522;2024-02-04T02:07:37;2.00;;;1.20;;
68910;SDS011;55953;51.650;-0.522;2024-02-04T02:10:06;2.00;;;1.20;;
68910;SDS011;55953;51.650;-0.522;2024-02-04T02:12:44;1.50;;;1.10;;
68910;SDS011;55953;51.650;-0.522;2024-02-04T02:15:28;1.40;;;1.00;;
68910;SDS011;55953;51.650;-0.522;2024-02-04T02:18:04;1.80;;;1.20;;
68910;SDS011;55953;51.650;-0.522;2024-02-04T02:20:59;3.40;;;1.30;;
68910;SDS011;55953;51.650;-0.522;2024-02-04T02:26:36;1.80;;;1.20;;
68910;SDS011;55953;51.650;-0.522;2024-02-04T02:29:06;2.30;;;1.40;;
68910;SDS011;55953;51.650;-0.522;2024-02-04T02:31:38;3.30;;;1.20;;
68910;SDS011;55953;51.650;-0.522;2024-02-04T02:34:16;3.40;;;1.40;;
68910;SDS011;55953;51.650;-0.522;2024-02-04T02:36:57;2.90;;;1.40;;
68910;SDS011;55953;51.650;-0.522;2024-02-04T02:39:34;1.70;;;1.30;;
68910;SDS011;55953;51.650;-0.522;2024-02-04T02:42:21;1.70;;;1.40;;
68910;SDS011;55953;51.650;-0.522;2024-02-04T02:47:22;1.70;;;1.20;;
68910;SDS011;55953;51.650;-0.522;2024-02-04T02:49:52;2.50;;;1.50;;
68910;SDS011;55953;51.650;-0.522;2024-02-04T02:52:21;1.40;;;1.10;;
68910;SDS011;55953;51.650;-0.522;2024-02-04T02:54:50;1.60;;;1.20;;
68910;SDS011;55953;51.650;-0.522;2024-02-04T02:57:18;2.00;;;1.00;;
68910;SDS011;55953;51.650;-0.522;2024-02-04T02:59:46;1.30;;;1.10;;
68910;SDS011;55953;51.650;-0.522;2024-02-04T03:02:14;1.30;;;1.00;;
68910;SDS011;55953;51.650;-0.522;2024-02-04T03:04:41;1.90;;;1.10;;
68910;SDS011;55953;51.650;-0.522;2024-02-04T03:07:10;1.00;;;0.80;;
68910;SDS011;55953;51.650;-0.522;2024-02-04T03:09:37;1.40;;;1.10;;
68910;SDS011;55953;51.650;-0.522;2024-02-04T03:12:06;1.80;;;1.00;;
68910;SDS011;55953;51.650;-0.522;2024-02-04T03:14:34;0.80;;;0.80;;
68910;SDS011;55953;51.650;-0.522;2024-02-04T03:17:02;2.20;;;1.20;;
68910;SDS011;55953;51.650;-0.522;2024-02-04T03:19:30;1.50;;;0.80;;
68910;SDS011;55953;51.650;-0.522;2024-02-04T03:21:58;2.30;;;0.80;;
68910;SDS011;55953;51.650;-0.522;2024-02-04T03:24:26;1.80;;;1.00;;
68910;SDS011;55953;51.650;-0.522;2024-02-04T03:26:54;1.80;;;0.80;;
68910;SDS011;55953;51.650;-0.522;2024-02-04T03:29:22;1.40;;;0.70;;
68910;SDS011;55953;51.650;-0.522;2024-02-04T03:31:50;2.00;;;0.90;;
68910;SDS011;55953;51.650;-0.522;2024-02-04T03:34:18;2.40;;;0.80;;
68910;SDS011;55953;51.650;-0.522;2024-02-04T03:36:46;2.60;;;0.90;;
68910;SDS011;55953;51.650;-0.522;2024-02-04T03:39:14;2.00;;;0.80;;
68910;SDS011;55953;51.650;-0.522;2024-02-04T03:41:42;1.70;;;1.00;;
68910;SDS011;55953;51.650;-0.522;2024-02-04T03:44:10;1.40;;;0.70;;
68910;SDS011;55953;51.650;-0.522;2024-02-04T03:46:38;1.60;;;0.70;;
68910;SDS011;55953;51.650;-0.522;2024-02-04T03:49:08;1.60;;;0.80;;
68910;SDS011;55953;51.650;-0.522;2024-02-04T03:51:37;1.40;;;0.50;;
68910;SDS011;55953;51.650;-0.522;2024-02-04T03:54:05;0.90;;;0.70;;
68910;SDS011;55953;51.650;-0.522;2024-02-04T03:56:33;2.20;;;0.70;;
68910;SDS011;55953;51.650;-0.522;2024-02-04T03:59:02;1.80;;;0.60;;
68910;SDS011;55953;51.650;-0.522;2024-02-04T04:01:30;1.10;;;0.70;;
68910;SDS011;55953;51.650;-0.522;2024-02-04T04:03:58;1.10;;;0.90;;
68910;SDS011;55953;51.650;-0.522;2024-02-04T04:06:26;1.50;;;0.80;;
68910;SDS011;55953;51.650;-0.522;2024-02-04T04:08:54;1.90;;;0.80;;
68910;SDS011;55953;51.650;-0.522;2024-02-04T04:11:22;3.10;;;0.90;;
68910;SDS011;55953;51.650;-0.522;2024-02-04T04:13:50;1.40;;;0.70;;
68910;SDS011;55953;51.650;-0.522;2024-02-04T04:16:21;2.80;;;0.90;;
68910;SDS011;55953;51.650;-0.522;2024-02-04T04:18:50;1.20;;;0.80;;
68910;SDS011;55953;51.650;-0.522;2024-02-04T04:21:18;2.00;;;0.70;;
68910;SDS011;55953;51.650;-0.522;2024-02-04T04:23:46;0.90;;;0.50;;
68910;SDS011;55953;51.650;-0.522;2024-02-04T04:26:14;1.10;;;0.70;;
68910;SDS011;55953;51.650;-0.522;2024-02-04T04:28:42;0.70;;;0.50;;
68910;SDS011;55953;51.650;-0.522;2024-02-04T04:31:10;2.00;;;0.70;;
68910;SDS011;55953;51.650;-0.522;2024-02-04T04:33:38;1.50;;;0.70;;
68910;SDS011;55953;51.650;-0.522;2024-02-04T04:36:06;1.60;;;1.20;;
68910;SDS011;55953;51.650;-0.522;2024-02-04T04:38:34;3.00;;;0.80;;
68910;SDS011;55953;51.650;-0.522;2024-02-04T04:41:02;2.90;;;1.10;;
68910;SDS011;55953;51.650;-0.522;2024-02-04T04:43:30;1.90;;;0.70;;
68910;SDS011;55953;51.650;-0.522;2024-02-04T04:45:58;2.50;;;0.70;;
68910;SDS011;55953;51.650;-0.522;2024-02-04T04:48:26;3.20;;;1.00;;
68910;SDS011;55953;51.650;-0.522;2024-02-04T04:50:54;2.70;;;0.80;;
68910;SDS011;55953;51.650;-0.522;2024-02-04T04:53:22;1.70;;;0.70;;
68910;SDS011;55953;51.650;-0.522;2024-02-04T04:55:50;1.80;;;0.80;;
68910;SDS011;55953;51.650;-0.522;2024-02-04T04:58:17;1.00;;;0.70;;
68910;SDS011;55953;51.650;-0.522;2024-02-04T05:00:45;3.80;;;0.90;;
68910;SDS011;55953;51.650;-0.522;2024-02-04T05:03:14;3.20;;;0.90;;
68910;SDS011;55953;51.650;-0.522;2024-02-04T05:05:42;3.70;;;0.90;;
68910;SDS011;55953;51.650;-0.522;2024-02-04T05:08:09;1.70;;;0.60;;
68910;SDS011;55953;51.650;-0.522;2024-02-04T05:10:37;1.70;;;0.60;;
68910;SDS011;55953;51.650;-0.522;2024-02-04T05:13:05;1.30;;;0.60;;
68910;SDS011;55953;51.650;-0.522;2024-02-04T05:15:34;2.90;;;0.90;;
68910;SDS011;55953;51.650;-0.522;2024-02-04T05:18:02;1.50;;;0.70;;
68910;SDS011;55953;51.650;-0.522;2024-02-04T05:20:32;2.90;;;0.60;;
68910;SDS011;55953;51.650;-0.522;2024-02-04T05:23:00;1.30;;;0.60;;
68910;SDS011;55953;51.650;-0.522;2024-02-04T05:25:28;1.50;;;0.40;;
68910;SDS011;55953;51.650;-0.522;2024-02-04T05:27:56;1.20;;;0.50;;
68910;SDS011;55953;51.650;-0.522;2024-02-04T05:30:24;2.00;;;0.60;;
68910;SDS011;55953;51.650;-0.522;2024-02-04T05:32:52;0.90;;;0.30;;
68910;SDS011;55953;51.650;-0.522;2024-02-04T05:35:20;2.10;;;0.70;;
68910;SDS011;55953;51.650;-0.522;2024-02-04T05:37:48;1.00;;;0.50;;
68910;SDS011;55953;51.650;-0.522;2024-02-04T05:40:16;2.20;;;0.60;;
68910;SDS011;55953;51.650;-0.522;2024-02-04T05:42:46;0.90;;;0.60;;
68910;SDS011;55953;51.650;-0.522;2024-02-04T05:45:14;1.60;;;0.60;;
68910;SDS011;55953;51.650;-0.522;2024-02-04T05:47:42;1.50;;;0.70;;
68910;SDS011;55953;51.650;-0.522;2024-02-04T05:50:10;1.40;;;0.60;;
68910;SDS011;55953;51.650;-0.522;2024-02-04T05:52:39;1.40;;;0.60;;
68910;SDS011;55953;51.650;-0.522;2024-02-04T05:55:07;2.10;;;0.50;;
68910;SDS011;55953;51.650;-0.522;2024-02-04T05:57:37;1.80;;;0.80;;
68910;SDS011;55953;51.650;-0.522;2024-02-04T06:00:07;0.80;;;0.50;;
68910;SDS011;55953;51.650;-0.522;2024-02-04T06:02:37;0.90;;;0.60;;
68910;SDS011;55953;51.650;-0.522;2024-02-04T06:05:05;0.90;;;0.70;;
68910;SDS011;55953;51.650;-0.522;2024-02-04T06:07:33;1.60;;;0.70;;
68910;SDS011;55953;51.650;-0.522;2024-02-04T06:10:01;1.40;;;0.60;;
68910;SDS011;55953;51.650;-0.522;2024-02-04T06:12:31;0.60;;;0.50;;
68910;SDS011;55953;51.650;-0.522;2024-02-04T06:14:59;0.70;;;0.60;;
68910;SDS011;55953;51.650;-0.522;2024-02-04T06:17:27;0.90;;;0.50;;
68910;SDS011;55953;51.650;-0.522;2024-02-04T06:19:55;2.00;;;0.60;;
68910;SDS011;55953;51.650;-0.522;2024-02-04T06:22:25;0.90;;;0.40;;
68910;SDS011;55953;51.650;-0.522;2024-02-04T06:24:53;0.70;;;0.70;;
68910;SDS011;55953;51.650;-0.522;2024-02-04T06:27:20;0.80;;;0.40;;
68910;SDS011;55953;51.650;-0.522;2024-02-04T06:29:48;1.20;;;0.70;;
68910;SDS011;55953;51.650;-0.522;2024-02-04T06:32:16;1.20;;;0.60;;
68910;SDS011;55953;51.650;-0.522;2024-02-04T06:34:47;1.90;;;0.60;;
68910;SDS011;55953;51.650;-0.522;2024-02-04T06:37:16;2.30;;;0.80;;
68910;SDS011;55953;51.650;-0.522;2024-02-04T06:39:44;1.20;;;0.50;;
68910;SDS011;55953;51.650;-0.522;2024-02-04T06:42:12;0.50;;;0.50;;
68910;SDS011;55953;51.650;-0.522;2024-02-04T06:44:46;0.80;;;0.50;;
68910;SDS011;55953;51.650;-0.522;2024-02-04T06:47:14;1.50;;;0.50;;
68910;SDS011;55953;51.650;-0.522;2024-02-04T06:49:45;0.60;;;0.40;;
68910;SDS011;55953;51.650;-0.522;2024-02-04T06:52:13;0.80;;;0.40;;
68910;SDS011;55953;51.650;-0.522;2024-02-04T06:54:41;1.40;;;0.60;;
68910;SDS011;55953;51.650;-0.522;2024-02-04T06:57:09;0.70;;;0.40;;
68910;SDS011;55953;51.650;-0.522;2024-02-04T06:59:37;1.60;;;0.50;;
68910;SDS011;55953;51.650;-0.522;2024-02-04T07:02:05;1.80;;;0.50;;
68910;SDS011;55953;51.650;-0.522;2024-02-04T07:04:33;1.00;;;0.50;;
68910;SDS011;55953;51.650;-0.522;2024-02-04T07:07:01;0.70;;;0.40;;
68910;SDS011;55953;51.650;-0.522;2024-02-04T07:09:29;1.10;;;0.50;;
68910;SDS011;55953;51.650;-0.522;2024-02-04T07:11:57;0.40;;;0.40;;
68910;SDS011;55953;51.650;-0.522;2024-02-04T07:14:25;1.00;;;0.60;;
68910;SDS011;55953;51.650;-0.522;2024-02-04T07:16:53;0.80;;;0.60;;
68910;SDS011;55953;51.650;-0.522;2024-02-04T07:19:21;0.90;;;0.50;;
68910;SDS011;55953;51.650;-0.522;2024-02-04T07:21:49;1.10;;;0.50;;
68910;SDS011;55953;51.650;-0.522;2024-02-04T07:24:17;1.70;;;0.50;;
68910;SDS011;55953;51.650;-0.522;2024-02-04T07:26:46;1.40;;;0.50;;
68910;SDS011;55953;51.650;-0.522;2024-02-04T07:29:14;0.40;;;0.40;;
68910;SDS011;55953;51.650;-0.522;2024-02-04T07:31:42;1.60;;;0.60;;
68910;SDS011;55953;51.650;-0.522;2024-02-04T07:34:10;1.10;;;0.40;;
68910;SDS011;55953;51.650;-0.522;2024-02-04T07:36:38;0.50;;;0.30;;
68910;SDS011;55953;51.650;-0.522;2024-02-04T07:39:06;2.20;;;0.60;;
68910;SDS011;55953;51.650;-0.522;2024-02-04T07:41:34;1.30;;;0.60;;
68910;SDS011;55953;51.650;-0.522;2024-02-04T07:44:03;1.20;;;0.40;;
68910;SDS011;55953;51.650;-0.522;2024-02-04T07:46:31;0.60;;;0.40;;
68910;SDS011;55953;51.650;-0.522;2024-02-04T07:48:59;1.70;;;0.40;;
68910;SDS011;55953;51.650;-0.522;2024-02-04T07:51:27;1.30;;;0.60;;
68910;SDS011;55953;51.650;-0.522;2024-02-04T07:53:55;0.50;;;0.50;;
68910;SDS011;55953;51.650;-0.522;2024-02-04T07:56:23;0.60;;;0.40;;
68910;SDS011;55953;51.650;-0.522;2024-02-04T07:58:50;1.80;;;0.50;;
68910;SDS011;55953;51.650;-0.522;2024-02-04T08:01:18;2.30;;;0.60;;
68910;SDS011;55953;51.650;-0.522;2024-02-04T08:03:47;1.70;;;0.60;;
68910;SDS011;55953;51.650;-0.522;2024-02-04T08:06:15;1.60;;;0.60;;
68910;SDS011;55953;51.650;-0.522;2024-02-04T08:08:43;1.80;;;0.70;;
68910;SDS011;55953;51.650;-0.522;2024-02-04T08:11:16;1.10;;;0.50;;
68910;SDS011;55953;51.650;-0.522;2024-02-04T08:13:45;0.60;;;0.50;;
68910;SDS011;55953;51.650;-0.522;2024-02-04T08:16:13;2.10;;;0.60;;
68910;SDS011;55953;51.650;-0.522;2024-02-04T08:18:41;1.00;;;0.60;;
68910;SDS011;55953;51.650;-0.522;2024-02-04T08:21:09;1.10;;;0.80;;
68910;SDS011;55953;51.650;-0.522;2024-02-04T08:23:37;1.40;;;0.70;;
68910;SDS011;55953;51.650;-0.522;2024-02-04T08:26:07;1.90;;;0.70;;
68910;SDS011;55953;51.650;-0.522;2024-02-04T08:28:35;4.00;;;0.70;;
68910;SDS011;55953;51.650;-0.522;2024-02-04T08:31:03;1.90;;;0.60;;
68910;SDS011;55953;51.650;-0.522;2024-02-04T08:33:31;1.50;;;0.70;;
68910;SDS011;55953;51.650;-0.522;2024-02-04T08:35:59;2.00;;;0.70;;
68910;SDS011;55953;51.650;-0.522;2024-02-04T08:38:27;2.50;;;0.70;;
68910;SDS011;55953;51.650;-0.522;2024-02-04T08:40:55;1.90;;;0.60;;
68910;SDS011;55953;51.650;-0.522;2024-02-04T08:43:23;0.70;;;0.50;;
68910;SDS011;55953;51.650;-0.522;2024-02-04T08:45:51;1.60;;;0.60;;
68910;SDS011;55953;51.650;-0.522;2024-02-04T08:48:19;2.30;;;0.70;;
68910;SDS011;55953;51.650;-0.522;2024-02-04T08:50:47;1.50;;;0.50;;
68910;SDS011;55953;51.650;-0.522;2024-02-04T08:53:15;1.30;;;0.50;;
68910;SDS011;55953;51.650;-0.522;2024-02-04T08:55:43;1.70;;;0.70;;
68910;SDS011;55953;51.650;-0.522;2024-02-04T08:58:11;1.60;;;0.80;;
68910;SDS011;55953;51.650;-0.522;2024-02-04T09:00:39;1.60;;;0.60;;
68910;SDS011;55953;51.650;-0.522;2024-02-04T09:03:07;1.20;;;0.50;;
68910;SDS011;55953;51.650;-0.522;2024-02-04T09:05:35;0.90;;;0.60;;
68910;SDS011;55953;51.650;-0.522;2024-02-04T09:08:03;1.70;;;0.50;;
68910;SDS011;55953;51.650;-0.522;2024-02-04T09:10:32;1.70;;;0.60;;
68910;SDS011;55953;51.650;-0.522;2024-02-04T09:12:59;0.80;;;0.40;;
68910;SDS011;55953;51.650;-0.522;2024-02-04T09:15:27;1.80;;;0.60;;
68910;SDS011;55953;51.650;-0.522;2024-02-04T09:17:55;1.50;;;0.50;;
68910;SDS011;55953;51.650;-0.522;2024-02-04T09:20:23;0.80;;;0.60;;
68910;SDS011;55953;51.650;-0.522;2024-02-04T09:22:52;0.40;;;0.40;;
68910;SDS011;55953;51.650;-0.522;2024-02-04T09:25:20;0.80;;;0.50;;
68910;SDS011;55953;51.650;-0.522;2024-02-04T09:27:48;0.70;;;0.40;;
68910;SDS011;55953;51.650;-0.522;2024-02-04T09:30:16;1.40;;;0.60;;
68910;SDS011;55953;51.650;-0.522;2024-02-04T09:32:44;0.30;;;0.30;;
68910;SDS011;55953;51.650;-0.522;2024-02-04T09:35:12;0.90;;;0.40;;
68910;SDS011;55953;51.650;-0.522;2024-02-04T09:37:42;0.60;;;0.50;;
68910;SDS011;55953;51.650;-0.522;2024-02-04T09:40:11;1.40;;;0.60;;
68910;SDS011;55953;51.650;-0.522;2024-02-04T09:42:40;1.00;;;0.60;;
68910;SDS011;55953;51.650;-0.522;2024-02-04T09:45:09;0.60;;;0.60;;
68910;SDS011;55953;51.650;-0.522;2024-02-04T09:47:39;1.60;;;0.50;;
68910;SDS011;55953;51.650;-0.522;2024-02-04T09:50:08;1.40;;;0.60;;
68910;SDS011;55953;51.650;-0.522;2024-02-04T09:52:40;2.10;;;0.70;;
68910;SDS011;55953;51.650;-0.522;2024-02-04T09:55:09;1.40;;;0.60;;
68910;SDS011;55953;51.650;-0.522;2024-02-04T10:00:10;1.40;;;0.60;;
68910;SDS011;55953;51.650;-0.522;2024-02-04T10:02:41;1.50;;;0.70;;
68910;SDS011;55953;51.650;-0.522;2024-02-04T10:05:10;1.40;;;0.70;;
68910;SDS011;55953;51.650;-0.522;2024-02-04T10:07:39;3.80;;;0.80;;
68910;SDS011;55953;51.650;-0.522;2024-02-04T10:10:07;1.30;;;0.70;;
68910;SDS011;55953;51.650;-0.522;2024-02-04T10:12:36;1.80;;;0.70;;
68910;SDS011;55953;51.650;-0.522;2024-02-04T10:15:07;7.60;;;0.90;;
68910;SDS011;55953;51.650;-0.522;2024-02-04T10:17:36;2.40;;;0.70;;
68910;SDS011;55953;51.650;-0.522;2024-02-04T10:20:04;0.80;;;0.80;;
68910;SDS011;55953;51.650;-0.522;2024-02-04T10:22:32;1.80;;;0.70;;
68910;SDS011;55953;51.650;-0.522;2024-02-04T10:25:07;2.70;;;0.70;;
68910;SDS011;55953;51.650;-0.522;2024-02-04T10:27:36;2.50;;;0.80;;
68910;SDS011;55953;51.650;-0.522;2024-02-04T10:30:05;2.20;;;0.80;;
68910;SDS011;55953;51.650;-0.522;2024-02-04T10:32:34;3.70;;;1.00;;
68910;SDS011;55953;51.650;-0.522;2024-02-04T10:35:02;3.00;;;1.00;;
68910;SDS011;55953;51.650;-0.522;2024-02-04T10:37:30;2.00;;;0.80;;
68910;SDS011;55953;51.650;-0.522;2024-02-04T10:39:58;2.90;;;1.00;;
68910;SDS011;55953;51.650;-0.522;2024-02-04T10:42:27;2.00;;;0.90;;
68910;SDS011;55953;51.650;-0.522;2024-02-04T10:44:57;1.90;;;0.60;;
68910;SDS011;55953;51.650;-0.522;2024-02-04T10:47:31;3.20;;;0.90;;
68910;SDS011;55953;51.650;-0.522;2024-02-04T10:50:03;3.30;;;0.80;;
68910;SDS011;55953;51.650;-0.522;2024-02-04T10:52:39;3.40;;;1.60;;
68910;SDS011;55953;51.650;-0.522;2024-02-04T10:55:11;2.90;;;0.90;;
68910;SDS011;55953;51.650;-0.522;2024-02-04T10:57:39;2.80;;;0.90;;
68910;SDS011;55953;51.650;-0.522;2024-02-04T11:00:09;2.40;;;0.80;;
68910;SDS011;55953;51.650;-0.522;2024-02-04T11:02:40;3.20;;;0.80;;
68910;SDS011;55953;51.650;-0.522;2024-02-04T11:05:11;3.00;;;0.60;;
68910;SDS011;55953;51.650;-0.522;2024-02-04T11:07:41;2.00;;;1.00;;
68910;SDS011;55953;51.650;-0.522;2024-02-04T11:10:10;2.50;;;1.00;;
68910;SDS011;55953;51.650;-0.522;2024-02-04T11:12:40;2.50;;;0.80;;
68910;SDS011;55953;51.650;-0.522;2024-02-04T11:15:12;1.60;;;0.80;;
68910;SDS011;55953;51.650;-0.522;2024-02-04T11:17:51;2.70;;;0.70;;
68910;SDS011;55953;51.650;-0.522;2024-02-04T11:23:48;1.40;;;0.60;;
68910;SDS011;55953;51.650;-0.522;2024-02-04T11:26:22;2.10;;;0.70;;
68910;SDS011;55953;51.650;-0.522;2024-02-04T11:28:51;2.30;;;0.80;;
68910;SDS011;55953;51.650;-0.522;2024-02-04T11:31:20;3.20;;;0.70;;
68910;SDS011;55953;51.650;-0.522;2024-02-04T11:33:50;3.30;;;0.70;;
68910;SDS011;55953;51.650;-0.522;2024-02-04T11:36:24;3.10;;;0.70;;
68910;SDS011;55953;51.650;-0.522;2024-02-04T11:38:53;2.30;;;0.70;;
68910;SDS011;55953;51.650;-0.522;2024-02-04T11:41:25;3.50;;;1.00;;
68910;SDS011;55953;51.650;-0.522;2024-02-04T11:43:56;1.60;;;0.60;;
68910;SDS011;55953;51.650;-0.522;2024-02-04T11:46:32;1.80;;;0.70;;
68910;SDS011;55953;51.650;-0.522;2024-02-04T11:49:01;1.60;;;0.70;;
68910;SDS011;55953;51.650;-0.522;2024-02-04T11:51:30;2.20;;;0.60;;
68910;SDS011;55953;51.650;-0.522;2024-02-04T11:53:58;2.00;;;0.70;;
68910;SDS011;55953;51.650;-0.522;2024-02-04T11:56:27;2.50;;;0.70;;
68910;SDS011;55953;51.650;-0.522;2024-02-04T11:58:55;3.30;;;0.80;;
68910;SDS011;55953;51.650;-0.522;2024-02-04T12:01:23;1.90;;;0.60;;
68910;SDS011;55953;51.650;-0.522;2024-02-04T12:03:52;2.10;;;0.70;;
68910;SDS011;55953;51.650;-0.522;2024-02-04T12:06:22;2.10;;;0.70;;
68910;SDS011;55953;51.650;-0.522;2024-02-04T12:08:50;3.10;;;0.90;;
68910;SDS011;55953;51.650;-0.522;2024-02-04T12:11:18;1.90;;;0.80;;
68910;SDS011;55953;51.650;-0.522;2024-02-04T12:13:47;1.40;;;0.70;;
68910;SDS011;55953;51.650;-0.522;2024-02-04T12:16:15;2.10;;;0.70;;
68910;SDS011;55953;51.650;-0.522;2024-02-04T12:18:50;1.40;;;0.60;;
68910;SDS011;55953;51.650;-0.522;2024-02-04T12:21:19;2.30;;;0.80;;
68910;SDS011;55953;51.650;-0.522;2024-02-04T12:23:47;4.50;;;1.00;;
68910;SDS011;55953;51.650;-0.522;2024-02-04T12:26:16;3.00;;;0.90;;
68910;SDS011;55953;51.650;-0.522;2024-02-04T12:28:44;2.80;;;0.90;;
68910;SDS011;55953;51.650;-0.522;2024-02-04T12:31:19;1.20;;;0.60;;
68910;SDS011;55953;51.650;-0.522;2024-02-04T12:33:54;2.00;;;0.70;;
68910;SDS011;55953;51.650;-0.522;2024-02-04T12:36:30;1.80;;;0.60;;
68910;SDS011;55953;51.650;-0.522;2024-02-04T12:39:01;3.40;;;0.60;;
68910;SDS011;55953;51.650;-0.522;2024-02-04T12:41:30;2.10;;;0.60;;
68910;SDS011;55953;51.650;-0.522;2024-02-04T12:43:59;1.80;;;0.70;;
68910;SDS011;55953;51.650;-0.522;2024-02-04T12:46:28;1.70;;;0.60;;
68910;SDS011;55953;51.650;-0.522;2024-02-04T12:48:58;2.30;;;0.70;;
68910;SDS011;55953;51.650;-0.522;2024-02-04T12:51:32;2.80;;;0.70;;
68910;SDS011;55953;51.650;-0.522;2024-02-04T12:54:09;1.40;;;0.70;;
68910;SDS011;55953;51.650;-0.522;2024-02-04T12:56:45;1.60;;;0.60;;
68910;SDS011;55953;51.650;-0.522;2024-02-04T12:59:32;2.70;;;0.80;;
68910;SDS011;55953;51.650;-0.522;2024-02-04T13:02:07;2.30;;;0.70;;
68910;SDS011;55953;51.650;-0.522;2024-02-04T13:04:41;1.60;;;0.60;;
68910;SDS011;55953;51.650;-0.522;2024-02-04T13:07:13;1.60;;;0.50;;
68910;SDS011;55953;51.650;-0.522;2024-02-04T13:09:45;1.40;;;0.50;;
68910;SDS011;55953;51.650;-0.522;2024-02-04T13:12:14;1.80;;;0.60;;
68910;SDS011;55953;51.650;-0.522;2024-02-04T13:14:44;1.10;;;0.60;;
68910;SDS011;55953;51.650;-0.522;2024-02-04T13:17:12;4.00;;;0.80;;
68910;SDS011;55953;51.650;-0.522;2024-02-04T13:19:40;2.00;;;0.70;;
68910;SDS011;55953;51.650;-0.522;2024-02-04T13:22:09;1.00;;;0.50;;
68910;SDS011;55953;51.650;-0.522;2024-02-04T13:24:38;1.00;;;0.50;;
68910;SDS011;55953;51.650;-0.522;2024-02-04T13:27:07;0.90;;;0.60;;
68910;SDS011;55953;51.650;-0.522;2024-02-04T13:29:35;2.30;;;0.70;;
68910;SDS011;55953;51.650;-0.522;2024-02-04T13:32:04;1.40;;;0.70;;
68910;SDS011;55953;51.650;-0.522;2024-02-04T13:34:32;2.00;;;0.70;;
68910;SDS011;55953;51.650;-0.522;2024-02-04T13:37:01;1.70;;;0.60;;
68910;SDS011;55953;51.650;-0.522;2024-02-04T13:39:29;2.30;;;0.60;;
68910;SDS011;55953;51.650;-0.522;2024-02-04T13:41:57;3.10;;;0.60;;
68910;SDS011;55953;51.650;-0.522;2024-02-04T13:44:25;1.70;;;0.50;;
68910;SDS011;55953;51.650;-0.522;2024-02-04T13:46:53;1.50;;;0.90;;
68910;SDS011;55953;51.650;-0.522;2024-02-04T13:49:21;0.90;;;0.50;;
68910;SDS011;55953;51.650;-0.522;2024-02-04T13:51:49;0.90;;;0.50;;
68910;SDS011;55953;51.650;-0.522;2024-02-04T13:54:17;1.20;;;0.60;;
68910;SDS011;55953;51.650;-0.522;2024-02-04T13:56:46;0.90;;;0.50;;
68910;SDS011;55953;51.650;-0.522;2024-02-04T13:59:14;2.10;;;0.60;;
68910;SDS011;55953;51.650;-0.522;2024-02-04T14:01:42;1.60;;;0.60;;
68910;SDS011;55953;51.650;-0.522;2024-02-04T14:04:12;0.50;;;0.50;;
68910;SDS011;55953;51.650;-0.522;2024-02-04T14:06:40;1.40;;;0.60;;
68910;SDS011;55953;51.650;-0.522;2024-02-04T14:09:08;0.60;;;0.40;;
68910;SDS011;55953;51.650;-0.522;2024-02-04T14:11:36;1.20;;;0.60;;
68910;SDS011;55953;51.650;-0.522;2024-02-04T14:14:04;1.70;;;0.50;;
68910;SDS011;55953;51.650;-0.522;2024-02-04T14:16:32;1.60;;;0.70;;
68910;SDS011;55953;51.650;-0.522;2024-02-04T14:19:00;1.70;;;0.70;;
68910;SDS011;55953;51.650;-0.522;2024-02-04T14:21:28;1.10;;;0.50;;
68910;SDS011;55953;51.650;-0.522;2024-02-04T14:23:56;1.70;;;0.60;;
68910;SDS011;55953;51.650;-0.522;2024-02-04T14:26:25;1.00;;;0.40;;
68910;SDS011;55953;51.650;-0.522;2024-02-04T14:28:53;1.10;;;0.50;;
68910;SDS011;55953;51.650;-0.522;2024-02-04T14:31:21;1.10;;;0.50;;
68910;SDS011;55953;51.650;-0.522;2024-02-04T14:33:49;1.50;;;0.80;;
68910;SDS011;55953;51.650;-0.522;2024-02-04T14:36:18;2.20;;;0.60;;
68910;SDS011;55953;51.650;-0.522;2024-02-04T14:38:47;2.40;;;0.80;;
68910;SDS011;55953;51.650;-0.522;2024-02-04T14:41:15;2.20;;;0.60;;
68910;SDS011;55953;51.650;-0.522;2024-02-04T14:43:43;2.10;;;0.70;;
68910;SDS011;55953;51.650;-0.522;2024-02-04T14:46:11;1.70;;;0.60;;
68910;SDS011;55953;51.650;-0.522;2024-02-04T14:48:40;2.30;;;0.60;;
68910;SDS011;55953;51.650;-0.522;2024-02-04T14:51:10;1.70;;;0.70;;
68910;SDS011;55953;51.650;-0.522;2024-02-04T14:53:38;3.30;;;0.80;;
68910;SDS011;55953;51.650;-0.522;2024-02-04T14:56:06;2.30;;;0.90;;